Terminal Aerodrome Forecast
Issued by NWS

Home | Current Version | Previous Version | Text Only | Print | Product List | Glossary On
Versions: 1 2 3 4 5 6 7 8 9 10 11 12 13 14 15 16 17 18 19 20 21 22 23 24
000
FTUS42 KFFC 240745 AAA
TAFFTY
TAF AMD
KFTY 240745Z 2408/2506 20009KT P6SM SCT008 BKN018 OVC025
      TEMPO 2409/2412 6SM BR BKN008 OVC015
     FM241400 24010G18KT P6SM BKN021 OVC035
     FM241700 25012G22KT P6SM BKN035
     FM242100 27010G20KT P6SM SCT040
     FM250000 30009KT P6SM SCT080=

USA.gov is the U.S. government's official web portal to all federal, state and local government web resources and services.